Time;durP1;ratioP1;P1;durP2;ratioP2;P2;SDS_P1;SDS_P2;PMS_P1;PMS_P2;Temp;Humidity;BMP_temperature;BMP_pressure;BME280_temperature;BME280_humidity;BME280_pressure;Samples;Min_cycle;Max_cycle;Signal;HPM_P1;HPM_P2
2022/07/11 00:01:07;;;;;;;4.93;2.47;;;;;;;;;;5073081;28;20191;-74
2022/07/11 00:03:35;;;;;;;5.67;2.30;;;;;;;;;;5072761;28;20230;-75
2022/07/11 00:06:02;;;;;;;3.60;2.50;;;;;;;;;;5057172;28;20290;-75
2022/07/11 00:08:30;;;;;;;4.07;2.37;;;;;;;;;;5074341;28;20637;-75
2022/07/11 00:10:57;;;;;;;4.67;2.67;;;;;;;;;;5053773;28;20232;-75
2022/07/11 00:13:24;;;;;;;6.33;2.97;;;;;;;;;;5070839;28;20232;-75
2022/07/11 00:15:51;;;;;;;8.03;2.67;;;;;;;;;;5064183;28;20231;-75
2022/07/11 00:18:18;;;;;;;4.47;2.63;;;;;;;;;;5063771;28;20692;-74
2022/07/11 00:20:47;;;;;;;5.83;2.67;;;;;;;;;;5062513;28;20246;-74
2022/07/11 00:23:14;;;;;;;4.00;2.33;;;;;;;;;;5052855;28;20239;-75
2022/07/11 00:25:41;;;;;;;5.03;2.60;;;;;;;;;;5053794;28;20702;-75
2022/07/11 00:28:08;;;;;;;4.03;2.40;;;;;;;;;;5053502;28;20236;-75
2022/07/11 00:30:36;;;;;;;4.53;2.83;;;;;;;;;;5053603;28;20239;-75
2022/07/11 00:33:03;;;;;;;3.90;2.73;;;;;;;;;;5067078;28;20238;-75
2022/07/11 00:35:30;;;;;;;4.37;2.60;;;;;;;;;;5071693;28;20238;-75
2022/07/11 00:37:59;;;;;;;5.70;2.60;;;;;;;;;;5066130;28;20704;-75
2022/07/11 00:40:26;;;;;;;3.57;2.50;;;;;;;;;;5089479;28;20223;-75
2022/07/11 00:42:53;;;;;;;3.83;2.43;;;;;;;;;;5067476;28;20283;-75
2022/07/11 00:45:21;;;;;;;5.13;2.70;;;;;;;;;;5078172;28;20230;-75
2022/07/11 00:47:48;;;;;;;8.40;2.93;;;;;;;;;;5093540;28;20237;-75
2022/07/11 00:50:15;;;;;;;3.87;2.37;;;;;;;;;;5084418;28;20298;-75
2022/07/11 00:52:43;;;;;;;4.40;2.57;;;;;;;;;;5072382;28;20277;-75
2022/07/11 00:55:12;;;;;;;2.73;2.37;;;;;;;;;;5073428;28;20195;-75
2022/07/11 00:57:39;;;;;;;4.93;2.70;;;;;;;;;;5072620;28;20242;-75
2022/07/11 01:00:07;;;;;;;3.27;2.27;;;;;;;;;;5061864;28;20270;-75
2022/07/11 01:02:34;;;;;;;4.83;2.37;;;;;;;;;;5052593;28;20689;-74
2022/07/11 01:05:02;;;;;;;8.27;2.80;;;;;;;;;;5068048;28;20260;-75
2022/07/11 01:07:31;;;;;;;6.30;2.37;;;;;;;;;;5064066;28;20293;-75
2022/07/11 01:09:58;;;;;;;4.50;2.30;;;;;;;;;;5060081;28;20251;-75
2022/07/11 01:12:27;;;;;;;4.70;2.50;;;;;;;;;;5062807;28;20734;-75
2022/07/11 01:14:54;;;;;;;4.03;2.20;;;;;;;;;;5065721;28;20226;-75
2022/07/11 01:17:22;;;;;;;4.30;2.50;;;;;;;;;;5060933;28;20223;-75
2022/07/11 01:19:49;;;;;;;4.53;2.60;;;;;;;;;;5050293;28;20205;-75
2022/07/11 01:22:17;;;;;;;3.70;2.40;;;;;;;;;;5062654;28;20615;-75
2022/07/11 01:24:45;;;;;;;4.23;2.47;;;;;;;;;;5063448;28;20277;-75
2022/07/11 01:27:13;;;;;;;4.97;2.53;;;;;;;;;;5063867;28;20277;-74
2022/07/11 01:29:40;;;;;;;4.63;2.30;;;;;;;;;;5064593;28;20339;-74
2022/07/11 01:32:08;;;;;;;4.03;2.60;;;;;;;;;;5052188;28;20206;-75
2022/07/11 01:34:35;;;;;;;2.43;2.00;;;;;;;;;;5063864;28;20234;-76
2022/07/11 01:37:02;;;;;;;5.57;2.30;;;;;;;;;;5057051;28;20282;-75
2022/07/11 01:39:30;;;;;;;4.67;2.80;;;;;;;;;;5067960;28;20238;-74
2022/07/11 01:41:59;;;;;;;4.23;2.17;;;;;;;;;;5058686;28;20662;-74
2022/07/11 01:44:27;;;;;;;3.97;2.30;;;;;;;;;;5052538;28;20741;-74
2022/07/11 01:46:54;;;;;;;3.50;2.30;;;;;;;;;;5068691;28;20207;-75
2022/07/11 01:49:21;;;;;;;6.47;2.10;;;;;;;;;;5078812;28;20784;-74
2022/07/11 01:51:49;;;;;;;3.23;2.20;;;;;;;;;;5071609;28;20304;-75
2022/07/11 01:54:16;;;;;;;4.73;2.33;;;;;;;;;;5070839;28;20199;-75
2022/07/11 01:56:43;;;;;;;3.40;2.20;;;;;;;;;;5066920;28;20727;-75
2022/07/11 01:59:12;;;;;;;4.97;2.20;;;;;;;;;;5070832;28;20249;-74
2022/07/11 02:01:39;;;;;;;4.67;2.23;;;;;;;;;;5063373;28;20243;-75
2022/07/11 02:04:06;;;;;;;5.03;2.30;;;;;;;;;;5077099;28;20237;-75
2022/07/11 02:06:33;;;;;;;5.07;2.40;;;;;;;;;;5092166;28;20240;-75
2022/07/11 02:09:01;;;;;;;4.87;2.47;;;;;;;;;;5077647;28;20231;-74
2022/07/11 02:11:28;;;;;;;3.33;2.47;;;;;;;;;;5051525;28;20231;-74
2022/07/11 02:13:55;;;;;;;3.80;2.50;;;;;;;;;;5052258;28;20734;-74
2022/07/11 02:16:24;;;;;;;3.67;2.40;;;;;;;;;;5061940;28;20289;-75
2022/07/11 02:18:51;;;;;;;3.03;2.30;;;;;;;;;;5071849;28;20284;-75
2022/07/11 02:21:19;;;;;;;3.40;2.40;;;;;;;;;;5066856;28;20674;-75
2022/07/11 02:23:46;;;;;;;6.30;2.60;;;;;;;;;;5091434;28;20580;-75
2022/07/11 02:26:13;;;;;;;2.40;2.20;;;;;;;;;;5088255;28;20241;-74
2022/07/11 02:28:42;;;;;;;3.03;2.30;;;;;;;;;;5056853;28;20639;-75
2022/07/11 02:31:09;;;;;;;4.50;2.43;;;;;;;;;;5059185;28;20230;-74
2022/07/11 02:33:38;;;;;;;3.43;2.43;;;;;;;;;;5051463;28;20231;-74
2022/07/11 02:36:07;;;;;;;3.23;2.63;;;;;;;;;;5081598;28;20226;-73
2022/07/11 02:38:34;;;;;;;4.13;2.70;;;;;;;;;;5067755;28;20245;-75
2022/07/11 02:41:01;;;;;;;5.80;2.60;;;;;;;;;;5080974;28;20220;-75
2022/07/11 02:43:29;;;;;;;5.57;2.73;;;;;;;;;;5051809;28;20265;-75
2022/07/11 02:45:56;;;;;;;5.83;2.70;;;;;;;;;;5054556;28;20202;-75
2022/07/11 02:48:23;;;;;;;3.97;2.40;;;;;;;;;;5054802;28;20698;-75
2022/07/11 02:50:52;;;;;;;4.07;2.40;;;;;;;;;;5054799;28;20326;-75
2022/07/11 02:53:19;;;;;;;4.43;2.50;;;;;;;;;;5055456;28;20204;-73
2022/07/11 02:55:48;;;;;;;5.30;2.57;;;;;;;;;;5064859;28;20662;-75
2022/07/11 02:58:15;;;;;;;4.83;2.60;;;;;;;;;;5055043;28;20200;-75
2022/07/11 03:00:42;;;;;;;2.90;2.33;;;;;;;;;;5081819;28;20230;-75
2022/07/11 03:03:09;;;;;;;4.93;2.60;;;;;;;;;;5093829;28;20249;-74
2022/07/11 03:05:37;;;;;;;2.50;2.30;;;;;;;;;;5081317;28;20278;-75
2022/07/11 03:08:05;;;;;;;4.27;2.30;;;;;;;;;;5066272;28;20248;-75
2022/07/11 03:10:32;;;;;;;4.30;2.47;;;;;;;;;;5074826;28;20759;-75
2022/07/11 03:13:00;;;;;;;4.33;2.53;;;;;;;;;;5075007;28;20294;-74
2022/07/11 03:15:27;;;;;;;5.17;2.73;;;;;;;;;;5065189;28;20231;-75
2022/07/11 03:17:54;;;;;;;5.00;2.47;;;;;;;;;;5074630;28;20231;-75
2022/07/11 03:20:21;;;;;;;3.50;2.30;;;;;;;;;;5071292;28;20238;-75
2022/07/11 03:22:48;;;;;;;4.30;2.70;;;;;;;;;;5074932;28;20753;-75
2022/07/11 03:25:17;;;;;;;2.97;2.50;;;;;;;;;;5073762;28;20203;-75
2022/07/11 03:27:44;;;;;;;4.63;2.70;;;;;;;;;;5074742;28;20242;-74
2022/07/11 03:30:14;;;;;;;2.97;2.40;;;;;;;;;;5056982;28;20255;-75
2022/07/11 03:32:41;;;;;;;3.33;2.23;;;;;;;;;;5070227;28;20205;-74
2022/07/11 03:37:54;;;;;;;3.33;2.60;;;;;;;;;;5074813;28;20194;-74
2022/07/11 03:40:23;;;;;;;2.90;2.40;;;;;;;;;;5074589;28;20862;-74
2022/07/11 03:42:50;;;;;;;3.33;2.40;;;;;;;;;;5074318;28;20231;-74
2022/07/11 03:45:18;;;;;;;3.57;2.30;;;;;;;;;;5056815;28;20227;-75
2022/07/11 03:47:47;;;;;;;2.60;2.40;;;;;;;;;;5062250;28;20264;-75
2022/07/11 03:50:14;;;;;;;3.67;2.20;;;;;;;;;;5086835;28;20637;-75
2022/07/11 03:52:41;;;;;;;4.53;2.37;;;;;;;;;;5075122;28;20314;-74
2022/07/11 03:55:09;;;;;;;4.53;2.50;;;;;;;;;;5094251;28;20233;-74
2022/07/11 03:57:38;;;;;;;5.73;2.50;;;;;;;;;;5094572;28;20230;-74
2022/07/11 04:00:07;;;;;;;2.83;2.30;;;;;;;;;;5067744;28;20196;-75
2022/07/11 04:02:35;;;;;;;4.30;2.20;;;;;;;;;;5053956;28;20199;-75
2022/07/11 04:05:02;;;;;;;4.07;2.43;;;;;;;;;;5053825;28;20285;-75
2022/07/11 04:07:29;;;;;;;4.60;2.50;;;;;;;;;;5054112;28;20232;-74
2022/07/11 04:09:57;;;;;;;2.73;2.07;;;;;;;;;;5053516;28;20212;-75
2022/07/11 04:12:24;;;;;;;3.63;2.07;;;;;;;;;;5059048;28;20227;-75
2022/07/11 04:14:52;;;;;;;3.07;2.10;;;;;;;;;;5088128;28;20278;-75
2022/07/11 04:17:20;;;;;;;3.73;2.10;;;;;;;;;;5077364;28;20238;-75
2022/07/11 04:19:47;;;;;;;3.60;2.40;;;;;;;;;;5065527;28;20245;-74
2022/07/11 04:22:14;;;;;;;4.30;2.13;;;;;;;;;;5065696;28;20242;-75
2022/07/11 04:24:42;;;;;;;4.27;2.50;;;;;;;;;;5091464;28;20234;-74
2022/07/11 04:27:09;;;;;;;3.47;2.30;;;;;;;;;;5082208;28;20228;-75
2022/07/11 04:29:36;;;;;;;3.53;2.17;;;;;;;;;;5093564;28;20277;-75
2022/07/11 04:32:06;;;;;;;3.40;2.20;;;;;;;;;;5068350;28;20242;-75
2022/07/11 04:34:33;;;;;;;3.33;2.00;;;;;;;;;;5060156;28;20716;-74
2022/07/11 04:37:00;;;;;;;3.53;2.20;;;;;;;;;;5093648;28;20237;-75
2022/07/11 04:39:27;;;;;;;4.50;2.33;;;;;;;;;;5093236;28;20230;-75
2022/07/11 04:41:54;;;;;;;3.33;2.27;;;;;;;;;;5085399;28;20289;-75
2022/07/11 04:44:22;;;;;;;2.63;1.83;;;;;;;;;;5071816;28;20231;-75
2022/07/11 04:46:49;;;;;;;3.10;2.20;;;;;;;;;;5092415;28;20666;-75
2022/07/11 04:49:18;;;;;;;4.80;2.33;;;;;;;;;;5093621;28;20226;-75
2022/07/11 04:51:45;;;;;;;3.37;2.07;;;;;;;;;;5066551;28;20255;-75
2022/07/11 04:54:13;;;;;;;2.20;2.00;;;;;;;;;;5089741;28;20230;-75
2022/07/11 04:56:40;;;;;;;4.00;2.27;;;;;;;;;;5079086;28;20298;-76
2022/07/11 04:59:07;;;;;;;3.00;2.17;;;;;;;;;;5072742;28;20241;-74
2022/07/11 05:01:34;;;;;;;3.47;2.20;;;;;;;;;;5061602;28;20202;-75
2022/07/11 05:04:03;;;;;;;5.10;1.97;;;;;;;;;;5085306;28;20219;-75
2022/07/11 05:06:32;;;;;;;3.27;1.90;;;;;;;;;;5071671;28;20234;-75
2022/07/11 05:08:59;;;;;;;3.53;2.10;;;;;;;;;;5073848;28;20206;-75
2022/07/11 05:11:26;;;;;;;3.00;2.23;;;;;;;;;;5074333;28;20249;-75
2022/07/11 05:13:54;;;;;;;2.90;1.90;;;;;;;;;;5092374;28;20650;-75
2022/07/11 05:16:21;;;;;;;3.47;2.10;;;;;;;;;;5085971;28;20651;-75
2022/07/11 05:18:48;;;;;;;2.23;2.00;;;;;;;;;;5077302;28;20293;-75
2022/07/11 05:21:21;;;;;;;2.53;1.80;;;;;;;;;;5074301;28;20227;-75
2022/07/11 05:23:50;;;;;;;3.43;1.90;;;;;;;;;;5090358;28;20213;-75
2022/07/11 05:26:17;;;;;;;2.40;1.97;;;;;;;;;;5067031;28;20652;-75
2022/07/11 05:28:45;;;;;;;3.53;2.00;;;;;;;;;;5065744;28;20279;-75
2022/07/11 05:31:12;;;;;;;3.63;1.97;;;;;;;;;;5066385;28;20311;-75
2022/07/11 05:33:39;;;;;;;3.97;1.90;;;;;;;;;;5058050;28;20675;-75
2022/07/11 05:36:07;;;;;;;2.00;1.63;;;;;;;;;;5055460;28;20279;-79
2022/07/11 05:38:34;;;;;;;2.30;1.70;;;;;;;;;;5068811;28;20206;-79
2022/07/11 05:41:03;;;;;;;2.60;1.60;;;;;;;;;;5062788;28;20226;-77
2022/07/11 05:43:30;;;;;;;1.80;1.40;;;;;;;;;;5069562;28;20286;-77
2022/07/11 05:45:57;;;;;;;6.95;1.80;;;;;;;;;;5071759;28;20234;-77
2022/07/11 05:48:24;;;;;;;1.70;1.20;;;;;;;;;;5056300;28;20290;-77
2022/07/11 05:50:52;;;;;;;1.80;1.40;;;;;;;;;;5062358;28;20250;-77
2022/07/11 05:53:19;;;;;;;2.72;1.48;;;;;;;;;;5064290;28;20281;-77
2022/07/11 05:55:46;;;;;;;1.63;1.08;;;;;;;;;;5060783;28;20230;-78
2022/07/11 05:58:14;;;;;;;2.85;1.33;;;;;;;;;;5062187;28;20200;-78
2022/07/11 06:00:42;;;;;;;3.13;1.10;;;;;;;;;;5055942;28;20227;-78
2022/07/11 06:03:09;;;;;;;1.75;1.33;;;;;;;;;;5062013;28;20231;-77
2022/07/11 06:05:36;;;;;;;2.17;1.20;;;;;;;;;;5066301;28;20290;-77
2022/07/11 06:10:48;;;;;;;3.42;1.30;;;;;;;;;;5050395;28;20246;-78
2022/07/11 06:13:30;;;;;;;3.47;1.20;;;;;;;;;;5059755;28;20631;-78
2022/07/11 06:15:57;;;;;;;3.58;1.10;;;;;;;;;;5071213;28;20203;-76
2022/07/11 06:18:25;;;;;;;1.42;1.20;;;;;;;;;;5074228;28;20290;-78
2022/07/11 06:20:52;;;;;;;2.40;1.10;;;;;;;;;;5075244;28;20267;-78
2022/07/11 06:23:19;;;;;;;1.10;0.93;;;;;;;;;;5076143;28;20745;-78
2022/07/11 06:25:47;;;;;;;1.45;1.00;;;;;;;;;;5059927;28;20231;-79
2022/07/11 06:28:14;;;;;;;2.38;1.20;;;;;;;;;;5070882;28;20242;-78
2022/07/11 06:30:42;;;;;;;1.42;0.93;;;;;;;;;;5076042;28;20315;-78
2022/07/11 06:33:09;;;;;;;6.07;1.20;;;;;;;;;;5065601;28;20278;-78
2022/07/11 06:35:37;;;;;;;1.67;0.90;;;;;;;;;;5057080;28;20294;-78
2022/07/11 06:38:04;;;;;;;0.90;0.80;;;;;;;;;;5085168;28;20195;-78
2022/07/11 06:40:31;;;;;;;1.80;0.98;;;;;;;;;;5087437;28;20242;-78
2022/07/11 06:42:59;;;;;;;2.83;1.10;;;;;;;;;;5076234;28;20278;-78
2022/07/11 06:45:26;;;;;;;2.67;1.13;;;;;;;;;;5075387;28;20238;-78
2022/07/11 06:47:54;;;;;;;1.70;1.10;;;;;;;;;;5076050;28;20191;-79
2022/07/11 06:50:22;;;;;;;2.30;0.85;;;;;;;;;;5069074;28;20664;-78
2022/07/11 06:52:49;;;;;;;1.00;0.90;;;;;;;;;;5077169;28;20262;-78
2022/07/11 06:55:16;;;;;;;2.58;0.90;;;;;;;;;;5065928;28;20228;-78
2022/07/11 06:57:43;;;;;;;1.48;0.95;;;;;;;;;;5070366;28;20287;-78
2022/07/11 07:00:11;;;;;;;1.73;1.00;;;;;;;;;;5067896;28;20235;-78
2022/07/11 07:02:39;;;;;;;2.63;0.90;;;;;;;;;;5073854;28;20203;-79
2022/07/11 07:05:09;;;;;;;1.15;1.02;;;;;;;;;;5062126;28;20230;-79
2022/07/11 07:07:36;;;;;;;1.25;1.00;;;;;;;;;;5055352;28;20195;-79
2022/07/11 07:10:03;;;;;;;1.73;1.00;;;;;;;;;;5054997;28;20227;-78
2022/07/11 07:12:31;;;;;;;1.60;1.05;;;;;;;;;;5055658;28;20232;-78
2022/07/11 07:14:58;;;;;;;2.85;1.10;;;;;;;;;;5074929;28;20207;-78
2022/07/11 07:17:25;;;;;;;1.95;1.05;;;;;;;;;;5075159;28;20238;-78
2022/07/11 07:19:53;;;;;;;2.28;1.02;;;;;;;;;;5075180;28;20207;-78
2022/07/11 07:22:21;;;;;;;5.20;1.10;;;;;;;;;;5074050;28;20234;-78
2022/07/11 07:24:48;;;;;;;2.55;1.00;;;;;;;;;;5059194;28;20757;-78
2022/07/11 07:27:16;;;;;;;3.03;1.25;;;;;;;;;;5095446;28;20198;-79
2022/07/11 07:29:43;;;;;;;2.45;1.10;;;;;;;;;;5095007;28;20753;-78
2022/07/11 07:32:10;;;;;;;1.15;1.05;;;;;;;;;;5094714;28;20265;-78
2022/07/11 07:34:37;;;;;;;2.28;1.10;;;;;;;;;;5095098;28;20202;-79
2022/07/11 07:37:04;;;;;;;2.80;1.30;;;;;;;;;;5094738;28;20743;-78
2022/07/11 07:39:33;;;;;;;2.33;1.25;;;;;;;;;;5094644;28;20240;-79
2022/07/11 07:42:00;;;;;;;1.98;1.10;;;;;;;;;;5094968;28;20229;-78
2022/07/11 07:44:28;;;;;;;3.13;1.30;;;;;;;;;;5074428;28;20239;-79
2022/07/11 07:46:56;;;;;;;4.63;1.45;;;;;;;;;;5094510;28;20281;-78
2022/07/11 07:49:23;;;;;;;2.33;1.10;;;;;;;;;;5094487;28;20206;-79
2022/07/11 07:51:50;;;;;;;3.60;1.42;;;;;;;;;;5078131;28;20761;-78
2022/07/11 07:54:18;;;;;;;1.63;1.10;;;;;;;;;;5084847;28;20634;-79
2022/07/11 07:56:46;;;;;;;4.78;1.35;;;;;;;;;;5094855;28;20213;-79
2022/07/11 07:59:14;;;;;;;2.78;1.10;;;;;;;;;;5094109;28;20357;-79
2022/07/11 08:01:42;;;;;;;1.42;1.10;;;;;;;;;;5091596;28;20222;-79
2022/07/11 08:04:10;;;;;;;1.77;1.15;;;;;;;;;;5088031;28;20196;-79
2022/07/11 08:06:37;;;;;;;4.07;1.00;;;;;;;;;;5054341;28;20203;-79
2022/07/11 08:11:52;;;;;;;2.63;1.25;;;;;;;;;;5054233;28;20324;-78
2022/07/11 08:14:19;;;;;;;1.83;1.15;;;;;;;;;;5053497;28;20687;-79
2022/07/11 08:16:47;;;;;;;1.98;1.00;;;;;;;;;;5089223;28;20331;-79
2022/07/11 08:19:14;;;;;;;1.50;1.02;;;;;;;;;;5094508;28;20285;-78
2022/07/11 08:22:00;;;;;;;2.60;1.20;;;;;;;;;;5094206;28;20281;-78
2022/07/11 08:24:28;;;;;;;1.48;1.08;;;;;;;;;;5072125;28;20205;-79
2022/07/11 08:26:56;;;;;;;1.80;1.20;;;;;;;;;;5073150;28;20241;-77
2022/07/11 08:29:42;;;;;;;2.95;1.30;;;;;;;;;;5073623;28;20203;-77
2022/07/11 08:32:09;;;;;;;1.63;1.00;;;;;;;;;;5053562;28;20770;-78
2022/07/11 08:34:36;;;;;;;3.30;1.10;;;;;;;;;;5063371;28;20238;-79
2022/07/11 08:37:03;;;;;;;3.20;1.30;;;;;;;;;;5093428;28;20233;-80
2022/07/11 08:39:30;;;;;;;1.63;1.20;;;;;;;;;;5093626;28;20267;-77
2022/07/11 08:41:59;;;;;;;2.83;1.10;;;;;;;;;;5061724;28;20223;-78
2022/07/11 08:44:26;;;;;;;4.35;1.23;;;;;;;;;;5073557;28;20252;-77
2022/07/11 08:46:54;;;;;;;3.13;1.30;;;;;;;;;;5072999;28;20246;-78
2022/07/11 08:52:08;;;;;;;1.60;1.15;;;;;;;;;;5089495;28;20713;-78
2022/07/11 08:54:36;;;;;;;2.10;1.00;;;;;;;;;;5073287;28;20574;-77
2022/07/11 08:57:05;;;;;;;2.42;1.00;;;;;;;;;;5072811;28;20205;-79
2022/07/11 08:59:32;;;;;;;3.47;1.38;;;;;;;;;;5073140;28;20199;-78
2022/07/11 09:02:03;;;;;;;1.70;1.10;;;;;;;;;;5072911;28;20230;-79
2022/07/11 09:04:40;;;;;;;1.67;1.30;;;;;;;;;;5151109;27;20564;-79
2022/07/11 09:07:26;;;;;;;2.05;1.00;;;;;;;;;;5150066;27;20626;-79
2022/07/11 09:09:53;;;;;;;2.13;1.30;;;;;;;;;;5151302;27;20234;-79
2022/07/11 09:12:21;;;;;;;2.08;1.00;;;;;;;;;;5151338;27;20239;-81
2022/07/11 09:14:48;;;;;;;1.88;1.20;;;;;;;;;;5151456;27;20269;-81
2022/07/11 09:17:16;;;;;;;1.50;1.10;;;;;;;;;;5142251;27;20208;-81
2022/07/11 09:19:47;;;;;;;2.38;1.20;;;;;;;;;;5150906;27;20228;-81
2022/07/11 09:27:46;;;;;;;5.40;1.00;;;;;;;;;;5150657;27;20336;-84
2022/07/11 09:30:17;;;;;;;2.08;1.10;;;;;;;;;;5150123;27;20288;-77
2022/07/11 09:32:53;;;;;;;3.03;0.98;;;;;;;;;;5151057;27;20214;-78
2022/07/11 09:35:21;;;;;;;1.98;1.08;;;;;;;;;;5149199;27;20196;-78
2022/07/11 09:40:34;;;;;;;2.53;1.10;;;;;;;;;;5149922;27;20199;-78
2022/07/11 09:45:47;;;;;;;1.95;1.00;;;;;;;;;;5153404;27;20196;-77
2022/07/11 09:48:15;;;;;;;1.73;1.15;;;;;;;;;;5153649;27;20239;-78
2022/07/11 09:53:53;;;;;;;2.72;1.25;;;;;;;;;;5145970;27;20277;-77
2022/07/11 09:59:11;;;;;;;1.05;0.95;;;;;;;;;;5139425;27;20211;-77
2022/07/11 10:01:39;;;;;;;2.63;1.20;;;;;;;;;;5138421;27;20205;-77
2022/07/11 10:04:07;;;;;;;3.90;0.93;;;;;;;;;;5145477;27;20257;-77
2022/07/11 10:06:36;;;;;;;1.50;1.00;;;;;;;;;;5139528;27;20199;-77
2022/07/11 10:09:04;;;;;;;2.53;0.90;;;;;;;;;;5140487;27;20287;-77
2022/07/11 10:11:32;;;;;;;2.08;1.00;;;;;;;;;;5139221;27;20269;-78
2022/07/11 10:14:00;;;;;;;4.35;1.15;;;;;;;;;;5126670;27;20282;-77
2022/07/11 10:16:36;;;;;;;3.97;1.00;;;;;;;;;;5130270;27;20652;-77
2022/07/11 10:19:13;;;;;;;2.17;1.05;;;;;;;;;;5130244;27;20197;-78
2022/07/11 10:21:45;;;;;;;1.10;1.00;;;;;;;;;;5131824;27;20196;-77
2022/07/11 10:24:18;;;;;;;3.00;0.90;;;;;;;;;;5134982;27;20304;-77
2022/07/11 10:26:51;;;;;;;2.20;1.00;;;;;;;;;;5134486;27;20240;-77
2022/07/11 10:29:21;;;;;;;2.35;1.10;;;;;;;;;;5130775;27;20278;-77
2022/07/11 10:31:48;;;;;;;1.67;1.10;;;;;;;;;;5125105;27;20237;-77
2022/07/11 10:34:18;;;;;;;1.92;0.98;;;;;;;;;;5122556;27;20220;-77
2022/07/11 10:36:47;;;;;;;2.53;1.10;;;;;;;;;;5123953;27;20222;-77
2022/07/11 10:39:17;;;;;;;2.53;1.00;;;;;;;;;;5127314;27;20282;-77
2022/07/11 10:41:45;;;;;;;1.70;1.00;;;;;;;;;;5127745;27;20193;-77
2022/07/11 10:44:12;;;;;;;1.02;0.93;;;;;;;;;;5135596;27;20271;-77
2022/07/11 10:46:40;;;;;;;1.48;0.90;;;;;;;;;;5131102;27;20237;-77
2022/07/11 10:49:16;;;;;;;1.63;0.82;;;;;;;;;;5114267;27;20250;-76
2022/07/11 10:51:46;;;;;;;1.50;1.00;;;;;;;;;;5130148;27;20264;-77
2022/07/11 10:54:32;;;;;;;2.58;1.00;;;;;;;;;;5124481;27;20204;-77
2022/07/11 10:57:07;;;;;;;2.60;1.05;;;;;;;;;;5124016;27;20209;-78
2022/07/11 10:59:34;;;;;;;1.98;1.00;;;;;;;;;;5118817;27;20197;-77
2022/07/11 11:02:05;;;;;;;1.85;0.90;;;;;;;;;;5129308;27;20620;-77
2022/07/11 11:04:49;;;;;;;2.85;0.90;;;;;;;;;;5123111;27;20316;-77
2022/07/11 11:07:35;;;;;;;1.67;0.90;;;;;;;;;;5118903;27;20546;-78
2022/07/11 11:10:06;;;;;;;2.83;1.20;;;;;;;;;;5113263;28;20205;-77
2022/07/11 11:12:48;;;;;;;3.65;0.82;;;;;;;;;;5113837;28;20202;-77
2022/07/11 11:15:33;;;;;;;1.58;0.80;;;;;;;;;;5100504;27;20699;-77
2022/07/11 11:18:21;;;;;;;0.90;0.88;;;;;;;;;;5114370;27;20318;-77
2022/07/11 11:20:48;;;;;;;1.80;1.00;;;;;;;;;;5123365;27;20197;-77
2022/07/11 11:23:21;;;;;;;1.90;0.85;;;;;;;;;;5113114;28;20559;-77
2022/07/11 11:25:51;;;;;;;1.77;1.08;;;;;;;;;;5112234;28;20194;-76
2022/07/11 11:28:21;;;;;;;2.45;0.98;;;;;;;;;;5112173;28;20229;-76
2022/07/11 11:30:54;;;;;;;2.25;1.00;;;;;;;;;;5113050;28;20708;-76
2022/07/11 11:33:21;;;;;;;1.75;0.93;;;;;;;;;;5113043;28;20194;-76
2022/07/11 11:35:59;;;;;;;16.02;1.58;;;;;;;;;;5113931;28;20237;-77
2022/07/11 11:38:26;;;;;;;2.17;0.90;;;;;;;;;;5112803;28;20229;-77
2022/07/11 11:40:55;;;;;;;2.08;1.10;;;;;;;;;;5118456;27;20194;-76
2022/07/11 11:43:22;;;;;;;1.40;0.90;;;;;;;;;;5115375;27;20217;-77
2022/07/11 11:45:49;;;;;;;2.55;0.90;;;;;;;;;;5115901;27;20284;-77
2022/07/11 11:48:27;;;;;;;1.95;0.90;;;;;;;;;;5120590;27;20279;-77
2022/07/11 11:50:54;;;;;;;2.00;1.17;;;;;;;;;;5116265;27;20296;-77
2022/07/11 11:53:22;;;;;;;3.38;1.10;;;;;;;;;;5113669;28;20633;-77
2022/07/11 11:55:49;;;;;;;1.30;1.00;;;;;;;;;;5120258;27;20201;-77
2022/07/11 11:58:17;;;;;;;1.83;1.00;;;;;;;;;;5123083;27;20678;-77
2022/07/11 12:00:54;;;;;;;2.17;1.10;;;;;;;;;;5116265;27;20237;-77
2022/07/11 12:03:21;;;;;;;2.25;1.10;;;;;;;;;;5124731;27;20263;-77
2022/07/11 12:05:58;;;;;;;2.97;1.10;;;;;;;;;;5125445;27;20233;-77
2022/07/11 12:08:29;;;;;;;1.85;0.90;;;;;;;;;;5124356;27;20246;-77
2022/07/11 12:10:56;;;;;;;2.35;1.02;;;;;;;;;;5121219;27;20724;-77
2022/07/11 12:13:25;;;;;;;1.25;0.90;;;;;;;;;;5124796;27;20280;-77
2022/07/11 12:18:49;;;;;;;4.57;1.02;;;;;;;;;;5069299;28;20199;-77
2022/07/11 12:21:17;;;;;;;2.00;1.00;;;;;;;;;;5064383;28;20593;-77
2022/07/11 12:23:44;;;;;;;1.50;0.90;;;;;;;;;;5057945;28;20749;-77
2022/07/11 12:26:12;;;;;;;1.63;0.90;;;;;;;;;;5061129;28;20663;-77
2022/07/11 12:28:54;;;;;;;1.55;1.00;;;;;;;;;;5059871;28;20194;-77
2022/07/11 12:31:23;;;;;;;2.38;1.00;;;;;;;;;;5054761;28;20241;-77
2022/07/11 12:33:52;;;;;;;1.40;0.95;;;;;;;;;;5061180;28;20231;-77
2022/07/11 12:36:33;;;;;;;1.85;1.00;;;;;;;;;;5054615;28;20722;-77
2022/07/11 12:39:00;;;;;;;4.20;1.00;;;;;;;;;;5055456;28;20226;-76
2022/07/11 12:41:27;;;;;;;1.63;0.80;;;;;;;;;;5057910;28;20282;-76
2022/07/11 12:46:41;;;;;;;1.13;0.80;;;;;;;;;;5052623;28;20258;-77
2022/07/11 12:49:09;;;;;;;2.88;0.98;;;;;;;;;;5049979;28;20196;-77
2022/07/11 12:51:39;;;;;;;2.42;0.90;;;;;;;;;;5067475;28;20314;-76
2022/07/11 12:54:08;;;;;;;3.30;0.90;;;;;;;;;;5118711;27;20193;-77
2022/07/11 12:56:35;;;;;;;2.58;0.90;;;;;;;;;;5124512;27;20281;-77
2022/07/11 12:59:03;;;;;;;1.67;0.80;;;;;;;;;;5124136;27;20235;-77
2022/07/11 13:01:30;;;;;;;1.98;1.00;;;;;;;;;;5130281;27;20288;-77
2022/07/11 13:03:59;;;;;;;1.85;1.00;;;;;;;;;;5120481;27;20235;-77
2022/07/11 13:09:15;;;;;;;2.47;0.82;;;;;;;;;;5117214;28;20226;-77
2022/07/11 13:11:42;;;;;;;2.72;1.25;;;;;;;;;;5125182;28;20200;-77
2022/07/11 13:16:50;;;;;;;1.23;1.10;;;;;;;;;;5111835;28;20193;-77
2022/07/11 13:19:19;;;;;;;1.90;0.82;;;;;;;;;;5120415;27;20680;-78
2022/07/11 13:21:46;;;;;;;5.13;1.00;;;;;;;;;;5123235;28;20221;-78
2022/07/11 13:24:13;;;;;;;3.63;1.20;;;;;;;;;;5112692;28;20308;-78
2022/07/11 13:26:41;;;;;;;1.08;0.70;;;;;;;;;;5112009;28;20284;-77
2022/07/11 13:29:08;;;;;;;1.90;0.90;;;;;;;;;;5127105;28;20675;-77
2022/07/11 13:31:35;;;;;;;2.25;1.00;;;;;;;;;;5129702;27;20216;-77
2022/07/11 13:34:03;;;;;;;3.47;1.00;;;;;;;;;;5120467;27;20272;-78
2022/07/11 13:36:31;;;;;;;1.00;0.82;;;;;;;;;;5125284;27;20201;-77
2022/07/11 13:38:58;;;;;;;2.58;0.98;;;;;;;;;;5131800;27;20224;-77
2022/07/11 13:41:26;;;;;;;2.13;0.88;;;;;;;;;;5130165;27;20280;-77
2022/07/11 13:43:53;;;;;;;4.97;1.10;;;;;;;;;;5119416;28;20753;-77
2022/07/11 13:46:20;;;;;;;1.17;0.80;;;;;;;;;;5128815;28;20246;-77
2022/07/11 13:48:47;;;;;;;2.22;1.08;;;;;;;;;;5120145;27;20198;-76
2022/07/11 13:51:14;;;;;;;1.35;0.90;;;;;;;;;;5123655;27;20640;-77
2022/07/11 13:53:43;;;;;;;1.80;0.90;;;;;;;;;;5133933;27;20277;-77
2022/07/11 13:56:10;;;;;;;2.45;1.10;;;;;;;;;;5122332;27;20621;-77
2022/07/11 13:58:37;;;;;;;1.95;1.00;;;;;;;;;;5125828;27;20716;-77
2022/07/11 14:01:05;;;;;;;2.33;1.00;;;;;;;;;;5128585;27;20232;-76
2022/07/11 14:03:32;;;;;;;2.17;0.80;;;;;;;;;;5134621;27;20237;-77
2022/07/11 14:05:59;;;;;;;0.85;0.65;;;;;;;;;;5124762;27;20213;-77
2022/07/11 14:08:26;;;;;;;1.10;0.75;;;;;;;;;;5135150;27;20221;-77
2022/07/11 14:10:55;;;;;;;0.80;0.80;;;;;;;;;;5132326;27;20232;-77
2022/07/11 14:13:22;;;;;;;1.25;0.70;;;;;;;;;;5127576;27;20237;-76
2022/07/11 14:15:50;;;;;;;2.53;0.88;;;;;;;;;;5121033;27;20242;-77
2022/07/11 14:18:17;;;;;;;2.30;0.80;;;;;;;;;;5126508;27;20276;-76
2022/07/11 14:20:44;;;;;;;2.08;0.82;;;;;;;;;;5118927;27;20284;-77
2022/07/11 14:23:11;;;;;;;0.85;0.70;;;;;;;;;;5119556;27;20275;-77
2022/07/11 14:25:38;;;;;;;1.25;0.90;;;;;;;;;;5133790;27;20256;-77
2022/07/11 14:28:07;;;;;;;3.17;0.80;;;;;;;;;;5123826;27;20292;-77
2022/07/11 14:30:34;;;;;;;1.00;0.80;;;;;;;;;;5115488;27;20236;-77
2022/07/11 14:33:02;;;;;;;1.98;0.75;;;;;;;;;;5123328;27;20257;-77
2022/07/11 14:35:30;;;;;;;1.52;0.88;;;;;;;;;;5120830;27;20199;-77
2022/07/11 14:37:57;;;;;;;0.80;0.65;;;;;;;;;;5133846;27;20197;-77
2022/07/11 14:40:24;;;;;;;2.13;0.75;;;;;;;;;;5133845;27;20250;-77
2022/07/11 14:42:52;;;;;;;1.13;0.68;;;;;;;;;;5119293;27;20689;-77
2022/07/11 14:45:21;;;;;;;1.77;0.73;;;;;;;;;;5122220;27;20224;-77
2022/07/11 14:47:48;;;;;;;3.45;0.70;;;;;;;;;;5128440;27;20287;-77
2022/07/11 14:50:15;;;;;;;2.35;0.73;;;;;;;;;;5127615;27;20221;-77
2022/07/11 14:52:43;;;;;;;3.22;0.77;;;;;;;;;;5127149;27;20287;-77
2022/07/11 14:55:11;;;;;;;1.88;0.90;;;;;;;;;;5122205;27;20198;-77
2022/07/11 14:57:38;;;;;;;5.15;0.90;;;;;;;;;;5127699;27;20205;-77
2022/07/11 15:00:06;;;;;;;1.27;0.70;;;;;;;;;;5124989;27;20197;-77
2022/07/11 15:05:20;;;;;;;1.30;0.70;;;;;;;;;;5133415;27;20230;-77
2022/07/11 15:13:32;;;;;;;1.67;0.60;;;;;;;;;;5051175;28;20214;-76
2022/07/11 15:15:59;;;;;;;2.45;0.80;;;;;;;;;;5058472;28;20195;-78
2022/07/11 15:18:27;;;;;;;0.93;0.68;;;;;;;;;;5055653;28;20370;-77
2022/07/11 15:20:55;;;;;;;0.90;0.70;;;;;;;;;;5055884;28;20223;-77
2022/07/11 15:23:22;;;;;;;2.15;0.50;;;;;;;;;;5062779;28;20231;-77
2022/07/11 15:25:50;;;;;;;2.05;0.70;;;;;;;;;;5067349;28;20582;-77
2022/07/11 15:28:17;;;;;;;0.85;0.60;;;;;;;;;;5067949;28;20269;-77
2022/07/11 15:30:44;;;;;;;0.57;0.57;;;;;;;;;;5057547;28;20199;-77
2022/07/11 15:33:12;;;;;;;1.60;0.60;;;;;;;;;;5071102;28;20617;-77
2022/07/11 15:35:40;;;;;;;1.83;0.70;;;;;;;;;;5071067;28;20223;-76
2022/07/11 15:38:07;;;;;;;1.60;0.70;;;;;;;;;;5056362;28;20196;-77